Time;durP1;ratioP1;P1;durP2;ratioP2;P2;SDS_P1;SDS_P2;PMS_P1;PMS_P2;Temp;Humidity;BMP_temperature;BMP_pressure;BME280_temperature;BME280_humidity;BME280_pressure;Samples;Min_cycle;Max_cycle;Signal;HPM_P1;HPM_P2
2022/03/09 00:00:15;;;;;;;5.95;4.10;;;2.00;72.70;;;;;;5025831;28;20469;-67
2022/03/09 00:02:40;;;;;;;4.63;3.10;;;2.00;72.80;;;;;;5002309;28;20048;-67
2022/03/09 00:05:06;;;;;;;8.55;3.55;;;2.00;72.80;;;;;;5020618;28;20049;-67
2022/03/09 00:07:32;;;;;;;7.72;3.53;;;2.00;73.30;;;;;;5023107;28;20064;-68
2022/03/09 00:09:58;;;;;;;5.93;3.67;;;1.90;73.00;;;;;;5022767;28;20037;-67
2022/03/09 00:12:23;;;;;;;4.90;3.47;;;2.00;72.90;;;;;;5016541;28;20037;-67
2022/03/09 00:14:49;;;;;;;5.38;3.58;;;1.90;72.90;;;;;;5025249;28;20050;-67
2022/03/09 00:17:15;;;;;;;5.07;3.45;;;1.90;72.90;;;;;;5004296;28;20041;-67
2022/03/09 00:19:40;;;;;;;7.28;3.63;;;1.90;72.90;;;;;;5027315;28;20042;-67
2022/03/09 00:22:06;;;;;;;6.45;3.75;;;1.80;73.10;;;;;;5019967;28;20613;-67
2022/03/09 00:24:32;;;;;;;7.40;3.85;;;1.80;73.40;;;;;;4992861;28;20464;-67
2022/03/09 00:26:59;;;;;;;6.32;3.95;;;1.70;73.50;;;;;;4992500;28;20138;-67
2022/03/09 00:29:26;;;;;;;11.60;4.38;;;1.60;73.80;;;;;;5024476;28;20619;-67
2022/03/09 00:31:52;;;;;;;5.80;4.13;;;1.60;74.00;;;;;;5009357;28;20362;-67
2022/03/09 00:34:18;;;;;;;7.13;4.10;;;1.50;74.30;;;;;;5025561;28;20045;-67
2022/03/09 00:36:44;;;;;;;6.43;3.78;;;1.50;74.60;;;;;;5024512;28;20050;-67
2022/03/09 00:39:09;;;;;;;6.55;4.07;;;1.40;74.60;;;;;;5004802;28;20120;-67
2022/03/09 00:41:36;;;;;;;6.63;4.00;;;1.30;75.10;;;;;;5019119;28;20204;-67
2022/03/09 00:44:03;;;;;;;6.55;4.22;;;1.30;74.90;;;;;;5006789;28;20473;-67
2022/03/09 00:46:28;;;;;;;6.93;4.13;;;1.20;75.00;;;;;;5019344;28;20363;-67
2022/03/09 00:48:54;;;;;;;7.22;4.45;;;1.20;75.30;;;;;;5021180;28;20040;-67
2022/03/09 00:51:20;;;;;;;7.55;4.28;;;1.20;75.30;;;;;;4997601;28;20183;-67
2022/03/09 00:53:46;;;;;;;7.97;4.60;;;1.10;75.30;;;;;;5023370;28;20109;-67
2022/03/09 00:56:14;;;;;;;5.88;4.50;;;1.20;75.50;;;;;;5004875;28;20050;-67
2022/03/09 00:58:40;;;;;;;8.10;4.78;;;1.10;75.50;;;;;;5009919;28;20033;-67
2022/03/09 01:01:05;;;;;;;5.80;4.15;;;1.10;75.60;;;;;;5022944;28;20045;-67
2022/03/09 01:03:32;;;;;;;6.93;4.03;;;1.20;75.70;;;;;;5023957;28;20472;-67
2022/03/09 01:05:57;;;;;;;6.32;4.50;;;1.20;75.70;;;;;;5027469;28;20041;-67
2022/03/09 01:08:23;;;;;;;5.43;4.13;;;1.20;75.70;;;;;;5010959;28;20049;-67
2022/03/09 01:10:49;;;;;;;6.32;4.53;;;1.10;75.60;;;;;;5008868;28;20527;-67
2022/03/09 01:13:15;;;;;;;6.50;4.50;;;1.10;75.70;;;;;;5003508;28;20067;-67
2022/03/09 01:15:40;;;;;;;5.97;4.35;;;1.10;75.80;;;;;;5024349;28;20048;-67
2022/03/09 01:18:06;;;;;;;6.13;4.63;;;1.10;75.90;;;;;;5021952;28;20045;-67
2022/03/09 01:20:32;;;;;;;6.80;4.85;;;1.00;76.10;;;;;;5005086;28;20417;-67
2022/03/09 01:22:57;;;;;;;5.97;4.80;;;1.00;76.20;;;;;;5022914;28;20064;-67
2022/03/09 01:25:23;;;;;;;6.20;4.53;;;1.00;76.10;;;;;;5021691;28;20053;-67
2022/03/09 01:27:49;;;;;;;5.57;4.72;;;1.00;76.20;;;;;;5021528;28;20650;-67
2022/03/09 01:30:15;;;;;;;6.53;4.22;;;1.00;76.40;;;;;;5024902;28;20041;-67
2022/03/09 01:32:40;;;;;;;7.60;4.82;;;1.00;76.40;;;;;;5003880;28;20120;-67
2022/03/09 01:35:06;;;;;;;6.97;4.60;;;0.90;76.50;;;;;;4998827;28;20117;-67
2022/03/09 01:37:32;;;;;;;6.63;5.03;;;1.00;76.60;;;;;;5000980;28;20049;-67
2022/03/09 01:39:58;;;;;;;8.15;4.95;;;0.90;76.50;;;;;;5006488;28;20193;-67
2022/03/09 01:42:23;;;;;;;6.65;4.78;;;0.90;76.50;;;;;;5019751;28;20091;-67
2022/03/09 01:44:49;;;;;;;6.03;4.43;;;1.00;76.80;;;;;;5005752;28;20124;-67
2022/03/09 01:47:15;;;;;;;6.30;4.55;;;1.00;76.80;;;;;;5006650;28;20048;-67
2022/03/09 01:49:41;;;;;;;8.00;5.18;;;1.00;76.80;;;;;;5024792;28;20543;-67
2022/03/09 01:52:07;;;;;;;8.80;5.50;;;1.00;76.80;;;;;;5003206;28;20046;-67
2022/03/09 01:54:33;;;;;;;7.20;5.15;;;1.00;76.80;;;;;;5022677;28;20082;-67
2022/03/09 01:57:00;;;;;;;7.10;5.22;;;1.00;76.80;;;;;;5022874;28;20516;-68
2022/03/09 01:59:26;;;;;;;10.88;5.28;;;1.00;76.90;;;;;;5021322;28;20034;-67
2022/03/09 02:01:52;;;;;;;10.00;5.10;;;0.90;77.00;;;;;;5021889;28;20488;-68
2022/03/09 02:04:18;;;;;;;9.02;5.55;;;0.90;77.20;;;;;;5020896;28;20465;-67
2022/03/09 02:06:45;;;;;;;9.82;5.22;;;0.90;77.20;;;;;;5020796;28;20041;-67
2022/03/09 02:11:56;;;;;;;9.48;5.85;;;0.90;77.40;;;;;;5017561;28;20072;-67
2022/03/09 02:14:38;;;;;;;8.27;5.25;;;0.90;77.50;;;;;;5022316;28;20063;-67
2022/03/09 02:17:13;;;;;;;7.32;4.70;;;0.80;77.70;;;;;;5020121;28;20068;-67
2022/03/09 02:19:40;;;;;;;7.43;5.40;;;0.80;78.40;;;;;;5009249;28;20038;-67
2022/03/09 02:22:12;;;;;;;8.20;5.13;;;0.70;77.70;;;;;;5017935;28;20038;-67
2022/03/09 02:24:38;;;;;;;7.75;5.25;;;0.80;77.80;;;;;;5021792;28;20045;-67
2022/03/09 02:27:04;;;;;;;6.68;4.80;;;0.80;78.00;;;;;;5007229;28;20384;-67
2022/03/09 02:29:30;;;;;;;9.35;5.55;;;0.70;78.00;;;;;;5002678;28;20052;-67
2022/03/09 02:31:55;;;;;;;9.05;5.18;;;0.70;78.10;;;;;;5025470;28;20049;-67
2022/03/09 02:34:21;;;;;;;9.07;5.40;;;0.70;78.80;;;;;;5023329;28;20412;-67
2022/03/09 02:36:47;;;;;;;8.05;5.95;;;0.60;78.20;;;;;;5023584;28;20037;-67
2022/03/09 02:39:13;;;;;;;7.15;5.28;;;0.70;78.40;;;;;;5023458;28;20045;-67
2022/03/09 02:41:39;;;;;;;7.00;5.32;;;0.60;78.60;;;;;;5002069;28;20053;-67
2022/03/09 02:44:05;;;;;;;9.32;5.88;;;0.60;78.50;;;;;;5021401;28;20033;-67
2022/03/09 02:46:30;;;;;;;7.95;5.40;;;0.60;78.60;;;;;;5018060;28;20077;-67
2022/03/09 02:48:56;;;;;;;8.60;5.75;;;0.60;78.80;;;;;;4998977;28;20120;-67
2022/03/09 02:51:22;;;;;;;7.38;5.55;;;0.60;78.80;;;;;;5000182;28;20133;-67
2022/03/09 02:53:48;;;;;;;9.65;6.18;;;0.60;78.80;;;;;;5009933;28;20057;-67
2022/03/09 02:56:15;;;;;;;7.25;5.13;;;0.60;79.00;;;;;;5005539;28;20049;-67
2022/03/09 02:58:43;;;;;;;7.15;5.15;;;0.60;79.10;;;;;;5024423;28;21280;-67
2022/03/09 03:01:10;;;;;;;10.90;5.70;;;0.60;79.20;;;;;;5021906;28;20037;-67
2022/03/09 03:03:35;;;;;;;10.82;5.93;;;0.50;79.20;;;;;;5004907;28;20045;-67
2022/03/09 03:06:01;;;;;;;7.82;5.63;;;0.50;79.40;;;;;;5021829;28;20410;-67
2022/03/09 03:08:27;;;;;;;11.57;5.90;;;0.50;79.60;;;;;;4991718;28;20602;-67
2022/03/09 03:10:52;;;;;;;8.02;5.97;;;0.50;79.60;;;;;;5021057;28;20496;-67
2022/03/09 03:13:18;;;;;;;9.70;5.65;;;0.40;79.80;;;;;;5006126;28;20045;-67
2022/03/09 03:15:44;;;;;;;8.63;5.90;;;0.40;79.80;;;;;;5020258;28;20099;-69
2022/03/09 03:18:09;;;;;;;8.32;6.28;;;0.40;80.00;;;;;;5020520;28;20129;-67
2022/03/09 03:20:35;;;;;;;9.27;6.15;;;0.30;80.00;;;;;;5004848;28;20145;-67
2022/03/09 03:23:01;;;;;;;9.20;6.28;;;0.40;80.50;;;;;;5000041;28;20087;-67
2022/03/09 03:25:26;;;;;;;10.27;6.50;;;0.30;80.40;;;;;;5002311;28;20034;-67
2022/03/09 03:27:52;;;;;;;8.25;5.65;;;0.40;80.30;;;;;;5001721;28;20069;-67
2022/03/09 03:30:18;;;;;;;11.60;6.20;;;0.40;80.40;;;;;;5003914;28;20046;-67
2022/03/09 03:32:43;;;;;;;8.98;6.50;;;0.40;80.50;;;;;;5003282;28;20045;-67
2022/03/09 03:35:10;;;;;;;9.77;6.35;;;0.40;80.60;;;;;;5006102;28;20050;-67
2022/03/09 03:37:36;;;;;;;10.18;6.53;;;0.30;80.60;;;;;;5005988;28;20049;-67
2022/03/09 03:40:02;;;;;;;9.43;6.40;;;0.40;80.70;;;;;;5000829;28;20042;-67
2022/03/09 03:42:28;;;;;;;7.85;6.18;;;0.40;80.80;;;;;;5009582;28;20038;-67
2022/03/09 03:44:54;;;;;;;11.18;6.40;;;0.30;80.70;;;;;;5009652;28;20046;-67
2022/03/09 03:47:19;;;;;;;8.50;6.45;;;0.30;81.00;;;;;;5001968;28;20048;-67
2022/03/09 03:49:45;;;;;;;10.43;6.63;;;0.30;81.30;;;;;;5000886;28;20042;-67
2022/03/09 03:52:11;;;;;;;9.23;6.03;;;0.30;81.60;;;;;;5000899;28;20073;-67
2022/03/09 03:54:37;;;;;;;9.07;6.50;;;0.30;81.80;;;;;;5008562;28;20046;-67
2022/03/09 03:57:02;;;;;;;8.75;6.68;;;0.30;82.00;;;;;;5005041;28;20042;-67
2022/03/09 03:59:28;;;;;;;11.23;6.60;;;0.30;81.70;;;;;;5006514;28;20092;-67
2022/03/09 04:01:54;;;;;;;10.18;6.95;;;0.40;81.80;;;;;;4999423;28;20095;-67
2022/03/09 04:04:19;;;;;;;9.00;6.82;;;0.40;81.80;;;;;;5001983;28;20070;-67
2022/03/09 04:06:45;;;;;;;8.27;6.43;;;0.40;81.90;;;;;;5004438;28;20045;-67
2022/03/09 04:09:11;;;;;;;9.88;7.22;;;0.40;82.20;;;;;;4999050;28;20045;-67
2022/03/09 04:11:37;;;;;;;10.60;6.82;;;0.40;82.70;;;;;;5003363;28;20034;-67
2022/03/09 04:14:03;;;;;;;11.32;7.25;;;0.30;82.50;;;;;;5002979;28;20058;-68
2022/03/09 04:16:29;;;;;;;10.60;7.53;;;0.40;82.30;;;;;;5003699;28;20595;-67
2022/03/09 04:18:56;;;;;;;9.77;7.15;;;0.40;82.30;;;;;;4999286;28;20045;-66
2022/03/09 04:21:21;;;;;;;9.35;6.78;;;0.40;82.70;;;;;;5003496;28;20042;-66
2022/03/09 04:23:47;;;;;;;10.95;7.00;;;0.40;82.50;;;;;;5003805;28;20565;-67
2022/03/09 04:26:13;;;;;;;8.85;6.68;;;0.40;82.50;;;;;;4999614;28;20049;-67
2022/03/09 04:28:38;;;;;;;11.10;6.85;;;0.40;82.50;;;;;;5013578;28;20072;-67
2022/03/09 04:31:04;;;;;;;10.55;7.50;;;0.40;82.40;;;;;;5004154;28;20493;-66
2022/03/09 04:33:29;;;;;;;7.95;6.30;;;0.40;83.10;;;;;;5026446;28;20048;-66
2022/03/09 04:35:55;;;;;;;8.93;7.05;;;0.40;82.70;;;;;;5025578;28;20040;-67
2022/03/09 04:38:21;;;;;;;11.43;7.32;;;0.40;82.60;;;;;;5021599;28;20034;-67
2022/03/09 04:40:47;;;;;;;10.18;7.13;;;0.30;82.70;;;;;;5004011;28;20329;-66
2022/03/09 04:43:12;;;;;;;9.90;6.90;;;0.30;82.60;;;;;;5023170;28;20580;-66
2022/03/09 04:45:38;;;;;;;12.98;7.10;;;0.30;82.70;;;;;;5000933;28;20041;-67
2022/03/09 04:48:04;;;;;;;11.75;8.15;;;0.20;82.70;;;;;;5011629;28;20037;-67
2022/03/09 04:50:29;;;;;;;11.13;7.55;;;0.20;83.00;;;;;;5021930;28;20103;-67
2022/03/09 04:52:55;;;;;;;12.05;6.78;;;0.20;82.90;;;;;;5023231;28;20125;-67
2022/03/09 04:55:21;;;;;;;10.27;6.90;;;0.10;83.50;;;;;;5027162;28;20110;-67
2022/03/09 04:57:47;;;;;;;8.80;6.95;;;0.10;83.50;;;;;;5000558;28;21327;-66
2022/03/09 05:00:13;;;;;;;10.52;6.90;;;0.10;83.50;;;;;;5023070;28;20414;-66
2022/03/09 05:02:39;;;;;;;11.10;7.20;;;0.10;83.50;;;;;;5023787;28;20045;-66
2022/03/09 05:05:05;;;;;;;12.82;7.68;;;0.00;83.70;;;;;;5004786;28;20052;-66
2022/03/09 05:07:31;;;;;;;8.85;6.82;;;0.00;83.70;;;;;;5023714;28;20112;-67
2022/03/09 05:09:57;;;;;;;12.30;7.45;;;0.00;83.90;;;;;;5025620;28;20544;-67
2022/03/09 05:12:22;;;;;;;13.82;9.02;;;0.00;83.90;;;;;;5007887;28;20522;-67
2022/03/09 05:14:48;;;;;;;11.40;7.95;;;0.00;84.20;;;;;;5005872;28;20378;-67
2022/03/09 05:17:14;;;;;;;9.82;7.05;;;0.00;84.20;;;;;;5023758;28;20037;-67
2022/03/09 05:19:40;;;;;;;11.48;7.22;;;-0.10;84.20;;;;;;5022343;28;20038;-67
2022/03/09 05:22:06;;;;;;;11.90;7.78;;;-0.10;84.30;;;;;;5025499;28;20041;-67
2022/03/09 05:24:31;;;;;;;12.63;7.93;;;-0.10;84.50;;;;;;5009034;28;20567;-67
2022/03/09 05:26:57;;;;;;;10.35;7.15;;;-0.10;84.60;;;;;;5006751;28;20176;-67
2022/03/09 05:29:23;;;;;;;11.77;7.88;;;0.00;84.70;;;;;;5007593;28;20136;-66
2022/03/09 05:31:49;;;;;;;10.75;7.38;;;-0.10;84.80;;;;;;5009269;28;20077;-66
2022/03/09 05:34:15;;;;;;;9.35;7.38;;;-0.10;84.70;;;;;;5025890;28;20045;-66
2022/03/09 05:36:41;;;;;;;10.88;7.53;;;-0.10;84.80;;;;;;5024024;28;20033;-66
2022/03/09 05:39:07;;;;;;;10.30;7.95;;;-0.10;84.80;;;;;;5007564;28;20041;-66
2022/03/09 05:41:33;;;;;;;9.55;7.40;;;-0.10;85.00;;;;;;5022748;28;20049;-66
2022/03/09 05:43:59;;;;;;;12.05;7.38;;;-0.20;84.90;;;;;;5020302;28;20036;-66
2022/03/09 05:46:25;;;;;;;11.50;7.82;;;-0.20;85.10;;;;;;5022214;28;20091;-67
2022/03/09 05:48:51;;;;;;;9.57;7.20;;;-0.20;85.10;;;;;;5007153;28;20045;-66
2022/03/09 05:51:17;;;;;;;13.48;8.25;;;-0.30;85.10;;;;;;4999278;28;20409;-66
2022/03/09 05:53:43;;;;;;;10.45;7.82;;;-0.30;85.20;;;;;;5018737;28;20049;-67
2022/03/09 05:56:08;;;;;;;10.77;8.20;;;-0.30;85.30;;;;;;5022504;28;20042;-66
2022/03/09 05:58:34;;;;;;;12.07;7.90;;;-0.30;85.40;;;;;;4999940;28;20499;-66
2022/03/09 06:01:00;;;;;;;12.77;8.50;;;-0.40;85.50;;;;;;5021247;28;20545;-66
2022/03/09 06:03:25;;;;;;;11.88;8.50;;;-0.40;85.90;;;;;;5005994;28;20071;-66
2022/03/09 06:05:51;;;;;;;11.52;8.00;;;-0.40;86.00;;;;;;5021510;28;20071;-66
2022/03/09 06:08:17;;;;;;;14.18;8.30;;;-0.40;86.00;;;;;;5017733;28;20474;-66
2022/03/09 06:10:42;;;;;;;11.95;7.32;;;-0.40;86.00;;;;;;5003267;28;20085;-66
2022/03/09 06:13:08;;;;;;;10.23;8.00;;;-0.40;86.00;;;;;;4990968;28;20142;-66
2022/03/09 06:15:34;;;;;;;10.18;7.38;;;-0.40;86.00;;;;;;5018222;28;20385;-66
2022/03/09 06:17:59;;;;;;;13.05;7.85;;;-0.40;86.20;;;;;;5024602;28;20138;-66
2022/03/09 06:20:25;;;;;;;12.30;7.95;;;-0.40;86.20;;;;;;5007686;28;20034;-66
2022/03/09 06:22:52;;;;;;;12.05;7.80;;;-0.40;86.20;;;;;;5023368;28;20436;-66
2022/03/09 06:25:17;;;;;;;12.60;8.90;;;-0.40;86.40;;;;;;5009805;28;20417;-66
2022/03/09 06:27:46;;;;;;;10.32;7.30;;;-0.40;86.50;;;;;;5019752;28;20041;-66
2022/03/09 06:30:12;;;;;;;11.43;7.78;;;-0.40;86.60;;;;;;5003794;28;20041;-69
2022/03/09 06:32:38;;;;;;;12.43;7.60;;;-0.30;87.10;;;;;;5020693;28;20452;-66
2022/03/09 06:35:05;;;;;;;10.23;7.70;;;-0.30;87.10;;;;;;5000303;28;20049;-67
2022/03/09 06:37:32;;;;;;;11.48;7.75;;;-0.30;87.30;;;;;;5003413;28;20048;-66
2022/03/09 06:39:58;;;;;;;15.48;7.93;;;-0.20;87.50;;;;;;5005325;28;20053;-66
2022/03/09 06:42:24;;;;;;;9.30;7.57;;;-0.20;87.50;;;;;;5004132;28;20147;-66
2022/03/09 06:44:50;;;;;;;11.43;7.38;;;-0.10;88.00;;;;;;5000383;28;20057;-66
2022/03/09 06:47:16;;;;;;;13.38;7.68;;;-0.10;88.00;;;;;;5024086;28;20056;-66
2022/03/09 06:49:42;;;;;;;11.18;6.80;;;0.00;87.50;;;;;;5024439;28;20088;-66
2022/03/09 06:52:08;;;;;;;11.57;7.10;;;0.10;87.60;;;;;;5023252;28;20038;-66
2022/03/09 06:54:33;;;;;;;11.75;8.43;;;0.20;87.10;;;;;;5000482;28;20057;-67
2022/03/09 06:56:59;;;;;;;12.40;7.60;;;0.30;87.50;;;;;;5022228;28;20073;-66
2022/03/09 06:59:25;;;;;;;10.85;8.05;;;0.40;87.20;;;;;;5003510;28;20038;-66
2022/03/09 07:01:51;;;;;;;12.88;7.22;;;0.50;86.90;;;;;;5005172;28;20057;-66
2022/03/09 07:04:16;;;;;;;12.20;7.57;;;0.60;86.80;;;;;;5028428;28;20065;-66
2022/03/09 07:06:42;;;;;;;10.23;7.03;;;0.70;86.60;;;;;;5025026;28;20132;-67
2022/03/09 07:09:08;;;;;;;11.60;7.38;;;0.80;86.50;;;;;;5011993;28;20103;-66
2022/03/09 07:11:33;;;;;;;11.45;6.95;;;0.90;86.10;;;;;;5010190;28;20401;-67
2022/03/09 07:13:59;;;;;;;8.20;6.57;;;1.00;85.80;;;;;;5012368;28;20084;-66
2022/03/09 07:16:25;;;;;;;10.13;7.35;;;1.20;85.70;;;;;;5030224;28;20045;-66
2022/03/09 07:18:50;;;;;;;10.65;7.45;;;1.30;85.40;;;;;;5025464;28;20037;-67
2022/03/09 07:21:17;;;;;;;10.65;7.45;;;1.50;85.50;;;;;;5028699;28;20100;-67
2022/03/09 07:23:43;;;;;;;11.73;7.78;;;1.60;85.30;;;;;;5013290;28;20419;-68
2022/03/09 07:26:09;;;;;;;9.52;6.97;;;1.70;85.30;;;;;;5028605;28;20053;-67
2022/03/09 07:28:35;;;;;;;9.48;7.00;;;1.90;85.50;;;;;;5010064;28;20088;-67
2022/03/09 07:31:00;;;;;;;9.50;6.68;;;2.10;85.60;;;;;;5010721;28;20160;-67
2022/03/09 07:33:26;;;;;;;9.45;7.22;;;2.60;85.90;;;;;;5025535;28;20497;-67
2022/03/09 07:35:52;;;;;;;10.15;7.32;;;3.20;85.00;;;;;;5007733;28;20079;-67
2022/03/09 07:38:20;;;;;;;11.98;7.82;;;3.80;83.00;;;;;;5026753;28;20042;-67
2022/03/09 07:40:46;;;;;;;10.07;6.95;;;4.50;81.60;;;;;;5005750;28;20046;-67
2022/03/09 07:43:12;;;;;;;11.65;8.50;;;5.30;80.10;;;;;;5010851;28;20119;-67
2022/03/09 07:45:38;;;;;;;9.43;7.30;;;6.00;77.30;;;;;;5012461;28;20056;-67
2022/03/09 07:48:04;;;;;;;8.73;7.03;;;6.80;75.50;;;;;;5021673;28;20038;-67
2022/03/09 07:50:30;;;;;;;9.80;7.22;;;7.60;72.50;;;;;;5027140;28;20053;-67
2022/03/09 07:52:56;;;;;;;8.65;6.57;;;8.20;71.30;;;;;;5010119;28;20041;-68
2022/03/09 07:55:22;;;;;;;8.48;7.53;;;8.80;69.00;;;;;;5007125;28;20050;-68
2022/03/09 07:57:48;;;;;;;8.35;6.82;;;9.00;67.10;;;;;;5024095;28;20081;-67
2022/03/09 08:00:14;;;;;;;10.80;6.68;;;9.50;66.10;;;;;;5025751;28;20030;-67
2022/03/09 08:02:41;;;;;;;8.88;6.75;;;9.90;63.60;;;;;;5009468;28;20090;-68
2022/03/09 08:05:07;;;;;;;8.63;6.85;;;10.30;62.60;;;;;;5024247;28;20053;-68
2022/03/09 08:07:33;;;;;;;10.75;7.45;;;10.50;61.30;;;;;;5006470;28;20497;-67
2022/03/09 08:09:59;;;;;;;8.52;7.50;;;10.50;59.70;;;;;;5023983;28;20662;-68
2022/03/09 08:12:26;;;;;;;8.40;7.07;;;11.00;60.70;;;;;;5021691;28;20042;-69
2022/03/09 08:14:52;;;;;;;9.10;7.13;;;11.30;58.80;;;;;;5009562;28;20427;-69
2022/03/09 08:17:17;;;;;;;8.40;6.82;;;11.90;57.90;;;;;;5025240;28;20038;-68
2022/03/09 08:19:43;;;;;;;8.05;6.88;;;12.10;56.90;;;;;;5025382;28;20063;-68
2022/03/09 08:22:09;;;;;;;7.53;6.38;;;12.40;54.90;;;;;;5025994;28;20099;-67
2022/03/09 08:24:34;;;;;;;8.43;6.53;;;12.70;55.50;;;;;;5021181;28;20034;-69
2022/03/09 08:27:01;;;;;;;7.43;6.72;;;13.00;55.00;;;;;;5006389;28;20049;-69
2022/03/09 08:29:27;;;;;;;12.23;6.20;;;13.40;53.60;;;;;;5004729;28;20214;-69
2022/03/09 08:31:52;;;;;;;9.15;6.95;;;13.70;52.60;;;;;;5001396;28;20156;-69
2022/03/09 08:34:18;;;;;;;7.30;6.03;;;14.10;52.00;;;;;;5006350;28;20335;-67
2022/03/09 08:36:44;;;;;;;6.50;5.30;;;14.50;50.60;;;;;;5001633;28;20402;-68
2022/03/09 08:39:09;;;;;;;6.07;5.47;;;14.70;49.40;;;;;;5003190;28;20042;-68
2022/03/09 08:41:36;;;;;;;8.52;5.93;;;15.00;48.90;;;;;;5000541;28;20045;-67
2022/03/09 08:44:03;;;;;;;6.60;5.47;;;15.40;48.10;;;;;;5002760;28;20253;-68
2022/03/09 08:46:29;;;;;;;7.22;6.50;;;15.80;47.40;;;;;;5003312;28;20144;-67
2022/03/09 08:48:55;;;;;;;9.80;6.35;;;16.30;46.20;;;;;;5002087;28;20038;-68
2022/03/09 08:51:21;;;;;;;7.65;5.90;;;16.50;44.80;;;;;;4999674;28;20125;-68
2022/03/09 08:53:48;;;;;;;7.07;5.90;;;16.70;44.40;;;;;;5003175;28;20173;-68
2022/03/09 08:56:14;;;;;;;9.00;6.78;;;16.90;44.00;;;;;;5006074;28;20033;-67
2022/03/09 08:58:39;;;;;;;6.47;5.75;;;16.80;43.40;;;;;;5006461;28;20046;-67
2022/03/09 09:01:05;;;;;;;7.05;5.68;;;16.90;43.90;;;;;;4996254;28;20840;-67
2022/03/09 09:03:31;;;;;;;7.45;5.97;;;17.00;43.30;;;;;;5005622;28;20382;-68
2022/03/09 09:05:57;;;;;;;6.95;6.25;;;17.10;42.30;;;;;;5002565;28;20042;-68
2022/03/09 09:08:23;;;;;;;6.15;5.55;;;17.20;41.70;;;;;;5002336;28;20362;-68
2022/03/09 09:10:49;;;;;;;7.07;5.70;;;17.00;41.30;;;;;;5002238;28;20466;-68
2022/03/09 09:13:15;;;;;;;7.22;5.88;;;16.90;41.80;;;;;;5004662;28;20046;-68
2022/03/09 09:15:41;;;;;;;8.05;6.82;;;16.90;41.20;;;;;;5003935;28;20469;-68
2022/03/09 09:18:08;;;;;;;7.97;5.93;;;16.90;41.30;;;;;;5001073;28;20042;-68
2022/03/09 09:20:34;;;;;;;7.43;5.82;;;17.00;42.10;;;;;;5003498;28;20038;-69
2022/03/09 09:23:01;;;;;;;6.93;5.47;;;17.30;41.30;;;;;;5005324;28;20038;-69
2022/03/09 09:25:27;;;;;;;6.05;5.45;;;17.30;40.30;;;;;;5004554;28;20050;-68
2022/03/09 09:27:55;;;;;;;6.40;5.57;;;17.00;40.20;;;;;;4999015;28;20353;-68
2022/03/09 09:30:22;;;;;;;6.43;5.68;;;16.90;39.90;;;;;;5025481;28;20058;-71
2022/03/09 09:32:49;;;;;;;6.38;5.45;;;17.10;39.80;;;;;;5021087;28;20053;-69
2022/03/09 09:35:16;;;;;;;6.85;6.10;;;17.20;39.50;;;;;;5024111;28;20041;-68
2022/03/09 09:37:43;;;;;;;8.52;6.43;;;17.30;39.00;;;;;;5025525;28;20044;-68
2022/03/09 09:40:11;;;;;;;8.20;5.68;;;17.10;39.30;;;;;;5025006;28;20099;-69
2022/03/09 09:42:38;;;;;;;7.50;5.95;;;17.20;38.60;;;;;;5023755;28;20041;-68
2022/03/09 09:45:05;;;;;;;8.13;6.38;;;17.30;39.40;;;;;;5025013;28;20103;-68
2022/03/09 09:47:31;;;;;;;5.72;5.18;;;17.60;39.20;;;;;;5018063;28;20073;-69
2022/03/09 09:49:58;;;;;;;9.52;5.90;;;17.70;38.70;;;;;;5021794;28;20450;-69
2022/03/09 09:52:33;;;;;;;8.45;6.13;;;17.80;38.80;;;;;;5022859;28;20077;-69
2022/03/09 09:55:02;;;;;;;6.88;5.95;;;17.90;37.20;;;;;;5019070;28;20058;-69
2022/03/09 09:57:29;;;;;;;8.00;5.70;;;18.00;38.60;;;;;;5021235;28;20477;-69
2022/03/09 09:59:56;;;;;;;7.45;6.03;;;18.20;37.70;;;;;;5001893;28;20058;-69
2022/03/09 10:02:22;;;;;;;7.55;5.82;;;18.10;37.50;;;;;;5006181;28;20045;-69
2022/03/09 10:04:50;;;;;;;6.57;5.78;;;18.30;37.20;;;;;;5022226;28;20450;-69
2022/03/09 10:07:16;;;;;;;8.80;5.97;;;18.40;37.80;;;;;;5020858;28;20540;-69
2022/03/09 10:09:43;;;;;;;6.40;5.80;;;18.70;37.60;;;;;;5020763;28;20369;-69
2022/03/09 10:12:10;;;;;;;6.28;5.68;;;18.80;36.90;;;;;;5020006;28;20033;-69
2022/03/09 10:14:53;;;;;;;8.07;5.13;;;18.80;36.60;;;;;;5028895;28;20041;-69
2022/03/09 10:17:36;;;;;;;6.85;6.18;;;18.70;36.30;;;;;;5022412;28;20046;-69
2022/03/09 10:20:10;;;;;;;6.83;6.13;;;18.90;37.80;;;;;;5023314;28;20033;-69
2022/03/09 10:22:41;;;;;;;7.85;5.65;;;19.00;37.00;;;;;;5024276;28;20488;-69
2022/03/09 10:25:09;;;;;;;7.63;6.40;;;19.20;35.90;;;;;;5022097;28;20485;-69
2022/03/09 10:27:36;;;;;;;8.48;5.90;;;18.80;35.60;;;;;;5021216;28;20037;-69
2022/03/09 10:30:06;;;;;;;7.20;6.43;;;18.70;35.00;;;;;;5022925;28;20123;-69
2022/03/09 10:32:59;;;;;;;6.25;5.60;;;18.60;35.40;;;;;;5025064;28;20029;-69
2022/03/09 10:35:30;;;;;;;8.23;5.40;;;18.70;35.00;;;;;;5000023;28;20393;-69
2022/03/09 10:38:26;;;;;;;7.05;6.35;;;18.70;35.00;;;;;;5024673;28;20041;-70
2022/03/09 10:40:55;;;;;;;7.50;6.40;;;18.90;36.20;;;;;;4999118;28;20049;-69
2022/03/09 10:43:29;;;;;;;8.45;6.00;;;18.90;35.10;;;;;;4991970;28;20049;-69
2022/03/09 10:46:17;;;;;;;7.65;5.97;;;19.20;35.20;;;;;;5022264;28;20479;-70
2022/03/09 10:49:00;;;;;;;6.88;5.97;;;19.40;34.70;;;;;;5002567;28;20042;-69
2022/03/09 10:51:35;;;;;;;9.18;6.22;;;19.50;35.30;;;;;;5021838;28;20480;-70
2022/03/09 10:54:09;;;;;;;9.13;5.60;;;19.80;35.50;;;;;;5022555;28;20048;-70
2022/03/09 10:56:35;;;;;;;;;;;19.80;34.70;;;;;;5007938;28;20137;-70
2022/03/09 10:59:15;;;;;;;6.97;6.25;;;19.70;33.60;;;;;;5024329;28;19917;-70
2022/03/09 11:01:42;;;;;;;7.07;6.38;;;19.80;33.50;;;;;;5006689;28;20513;-70
2022/03/09 11:04:13;;;;;;;6.95;6.35;;;19.80;34.30;;;;;;5023808;28;20099;-69
2022/03/09 11:06:46;;;;;;;7.30;6.07;;;19.60;34.00;;;;;;5025752;28;20102;-70
2022/03/09 11:09:13;;;;;;;7.00;6.30;;;19.30;34.40;;;;;;5001696;28;20160;-70
2022/03/09 11:11:41;;;;;;;7.15;6.45;;;19.40;34.80;;;;;;5003095;28;20104;-70
2022/03/09 11:14:08;;;;;;;7.00;6.10;;;19.60;35.40;;;;;;5022568;28;20416;-70
2022/03/09 11:16:34;;;;;;;7.35;6.65;;;19.90;34.80;;;;;;5020229;28;20141;-70
2022/03/09 11:19:02;;;;;;;7.20;6.30;;;20.00;33.80;;;;;;5006038;28;20057;-70
2022/03/09 11:21:29;;;;;;;8.25;6.57;;;20.10;33.50;;;;;;5004914;28;20050;-70
2022/03/09 11:23:55;;;;;;;9.10;5.85;;;19.80;33.50;;;;;;5019817;28;20037;-70
2022/03/09 11:26:26;;;;;;;9.50;6.65;;;19.40;33.50;;;;;;5015650;28;20047;-70
2022/03/09 11:29:06;;;;;;;7.28;6.22;;;19.30;34.00;;;;;;5019674;28;20058;-70
2022/03/09 11:31:49;;;;;;;6.97;6.00;;;19.30;34.90;;;;;;5006979;28;20049;-70
2022/03/09 11:34:42;;;;;;;7.07;6.38;;;19.30;33.80;;;;;;5020682;28;20528;-70
2022/03/09 11:37:37;;;;;;;8.23;6.43;;;19.50;34.00;;;;;;5024729;28;20048;-70
2022/03/09 11:40:06;;;;;;;7.88;6.78;;;19.50;33.90;;;;;;5004405;28;20060;-69
2022/03/09 11:42:36;;;;;;;8.88;6.68;;;19.40;34.30;;;;;;5019890;28;20037;-69
2022/03/09 11:45:14;;;;;;;7.50;6.78;;;19.50;33.20;;;;;;5012866;28;20062;-69
2022/03/09 11:47:58;;;;;;;8.45;6.50;;;19.60;34.30;;;;;;5008112;28;20065;-69
2022/03/09 11:50:25;;;;;;;7.43;6.47;;;19.90;33.90;;;;;;5027191;28;20393;-70
2022/03/09 11:53:06;;;;;;;6.85;6.22;;;19.70;32.70;;;;;;5024441;28;20111;-69
2022/03/09 11:55:34;;;;;;;7.68;6.85;;;19.30;32.10;;;;;;5021840;28;20263;-69
2022/03/09 11:58:00;;;;;;;8.20;6.68;;;19.20;34.30;;;;;;5005797;28;20453;-70
2022/03/09 12:00:26;;;;;;;7.05;6.32;;;19.50;34.30;;;;;;5013249;28;20064;-69
2022/03/09 12:02:56;;;;;;;7.10;6.45;;;19.80;32.90;;;;;;5025254;28;20049;-69
2022/03/09 12:05:25;;;;;;;7.47;6.72;;;19.60;33.10;;;;;;5029052;28;20502;-69
2022/03/09 12:07:52;;;;;;;7.50;6.78;;;19.60;33.20;;;;;;5006117;28;20484;-70
2022/03/09 12:10:21;;;;;;;7.57;6.75;;;19.40;33.20;;;;;;5023044;28;20065;-70
2022/03/09 12:13:10;;;;;;;7.53;6.82;;;19.50;32.80;;;;;;5003192;28;20532;-70
2022/03/09 12:16:01;;;;;;;9.38;6.78;;;19.70;32.10;;;;;;5003085;28;20057;-69
2022/03/09 12:18:40;;;;;;;8.50;6.72;;;19.50;32.50;;;;;;5026826;28;20041;-69
2022/03/09 12:21:07;;;;;;;8.93;6.72;;;19.30;33.70;;;;;;4986662;28;20568;-69
2022/03/09 12:23:35;;;;;;;9.27;7.88;;;19.60;33.70;;;;;;5023089;28;20065;-69
2022/03/09 12:26:01;;;;;;;8.05;6.82;;;19.70;33.10;;;;;;5009214;28;20495;-74
2022/03/09 12:28:34;;;;;;;8.15;7.35;;;19.90;32.90;;;;;;5025410;28;20061;-69
2022/03/09 12:31:02;;;;;;;8.82;7.63;;;20.10;33.70;;;;;;5021028;28;20175;-69
2022/03/09 12:33:39;;;;;;;9.70;6.95;;;20.20;32.80;;;;;;5008026;28;20050;-69
2022/03/09 12:36:07;;;;;;;7.93;7.13;;;19.90;32.60;;;;;;5022132;28;20080;-69
2022/03/09 12:38:39;;;;;;;8.45;6.40;;;19.80;32.90;;;;;;5024448;28;20041;-69
2022/03/09 12:41:05;;;;;;;8.27;7.47;;;19.80;32.40;;;;;;5020656;28;20041;-71
2022/03/09 12:43:47;;;;;;;7.82;7.07;;;19.70;32.40;;;;;;4997186;28;20045;-70
2022/03/09 12:46:13;;;;;;;9.43;7.03;;;19.80;33.10;;;;;;5000682;28;20064;-70
2022/03/09 12:48:40;;;;;;;8.40;6.97;;;20.20;33.10;;;;;;5024531;28;20042;-70
2022/03/09 12:51:06;;;;;;;9.57;7.20;;;20.50;32.50;;;;;;5019877;28;20045;-69
2022/03/09 12:53:32;;;;;;;8.77;7.80;;;20.50;32.10;;;;;;5007837;28;20610;-69